createdAt,value
2018-10-21T00:01:54.308Z,13.13
2018-10-21T00:04:21.376Z,12.20
2018-10-21T00:06:48.508Z,12.53
2018-10-21T00:09:15.724Z,11.07
2018-10-21T00:11:42.675Z,11.17
2018-10-21T00:14:09.768Z,11.60
2018-10-21T00:16:36.920Z,12.67
2018-10-21T00:19:04.428Z,10.90
2018-10-21T00:21:31.494Z,10.17
2018-10-21T00:23:58.712Z,10.13
2018-10-21T00:26:25.824Z,11.20
2018-10-21T00:28:53.407Z,9.90
2018-10-21T00:31:20.453Z,9.67
2018-10-21T00:33:47.476Z,10.63
2018-10-21T00:36:14.573Z,10.80
2018-10-21T00:38:41.866Z,10.90
2018-10-21T00:41:09.155Z,10.10
2018-10-21T00:43:36.511Z,11.53
2018-10-21T00:46:04.062Z,9.90
2018-10-21T00:48:31.096Z,10.23
2018-10-21T00:50:58.451Z,9.40
2018-10-21T00:53:25.516Z,10.40
2018-10-21T00:55:52.716Z,10.27
2018-10-21T00:58:19.805Z,10.97
2018-10-21T01:00:46.871Z,12.13
2018-10-21T01:03:14.040Z,12.00
2018-10-21T01:05:41.191Z,10.10
2018-10-21T01:08:08.366Z,10.40
2018-10-21T01:10:35.471Z,11.20
2018-10-21T01:13:02.554Z,11.70
2018-10-21T01:15:29.628Z,10.33
2018-10-21T01:17:56.664Z,10.87
2018-10-21T01:20:23.800Z,13.00
2018-10-21T01:22:50.909Z,12.43
2018-10-21T01:25:18.004Z,11.90
2018-10-21T01:27:45.427Z,14.17
2018-10-21T01:30:12.660Z,11.90
2018-10-21T01:32:39.722Z,11.97
2018-10-21T01:35:07.360Z,11.43
2018-10-21T01:37:34.511Z,11.80
2018-10-21T01:40:36.987Z,11.33
2018-10-21T01:43:04.731Z,11.77
2018-10-21T01:45:31.853Z,12.30
2018-10-21T01:48:00.036Z,12.33
2018-10-21T01:50:27.100Z,12.57
2018-10-21T01:52:55.365Z,11.67
2018-10-21T01:55:23.115Z,11.77
2018-10-21T01:57:50.172Z,12.47
2018-10-21T02:00:17.205Z,12.83
2018-10-21T02:02:44.280Z,12.67
2018-10-21T02:05:11.306Z,12.53
2018-10-21T02:07:38.758Z,13.90
2018-10-21T02:10:06.275Z,13.10
2018-10-21T02:12:33.324Z,13.60
2018-10-21T02:15:00.394Z,13.77
2018-10-21T02:17:27.500Z,12.97
2018-10-21T02:19:54.544Z,14.53
2018-10-21T02:22:21.684Z,13.33
2018-10-21T02:24:49.272Z,13.50
2018-10-21T02:27:16.339Z,12.37
2018-10-21T02:29:43.702Z,13.50
2018-10-21T02:32:10.802Z,14.80
2018-10-21T02:34:37.933Z,14.13
2018-10-21T02:37:05.070Z,14.90
2018-10-21T02:39:32.140Z,15.30
2018-10-21T02:41:59.167Z,13.83
2018-10-21T02:44:26.208Z,14.53
2018-10-21T02:46:54.383Z,13.20
2018-10-21T02:49:21.830Z,12.80
2018-10-21T02:51:54.847Z,14.03
2018-10-21T02:54:23.092Z,13.13
2018-10-21T02:56:50.144Z,14.50
2018-10-21T02:59:17.676Z,13.40
2018-10-21T03:01:44.711Z,13.30
2018-10-21T03:04:11.845Z,13.97
2018-10-21T03:06:39.162Z,13.00
2018-10-21T03:09:06.560Z,14.10
2018-10-21T03:11:33.551Z,14.10
2018-10-21T03:14:00.996Z,14.67
2018-10-21T03:16:28.032Z,15.13
2018-10-21T03:18:55.157Z,13.73
2018-10-21T03:21:22.671Z,14.70
2018-10-21T03:23:49.616Z,14.33
2018-10-21T03:26:16.667Z,14.37
2018-10-21T03:28:43.716Z,15.23
2018-10-21T03:31:10.757Z,14.73
2018-10-21T03:33:37.903Z,15.17
2018-10-21T03:36:05.418Z,14.73
2018-10-21T03:38:32.587Z,15.27
2018-10-21T03:40:59.691Z,14.70
2018-10-21T03:43:26.997Z,15.47
2018-10-21T03:45:54.245Z,13.97
2018-10-21T03:48:21.336Z,13.20
2018-10-21T03:50:48.482Z,14.47
2018-10-21T03:53:15.551Z,14.00
2018-10-21T03:55:42.980Z,15.93
2018-10-21T03:58:10.079Z,16.03
2018-10-21T04:00:37.372Z,15.20
2018-10-21T04:03:04.743Z,15.40
2018-10-21T04:05:31.934Z,17.23
2018-10-21T04:07:59.021Z,17.30
2018-10-21T04:10:26.104Z,15.57
2018-10-21T04:12:53.211Z,16.20
2018-10-21T04:15:20.248Z,15.00
2018-10-21T04:17:47.316Z,14.47
2018-10-21T04:20:14.370Z,18.80
2018-10-21T04:22:48.006Z,17.20
2018-10-21T04:25:15.181Z,17.53
2018-10-21T04:27:42.208Z,18.50
2018-10-21T04:30:09.235Z,18.03
2018-10-21T04:32:38.623Z,17.73
2018-10-21T04:35:05.635Z,19.80
2018-10-21T04:37:38.354Z,18.13
2018-10-21T04:40:14.163Z,19.70
2018-10-21T04:42:41.159Z,19.60
2018-10-21T04:45:08.821Z,19.40
2018-10-21T04:47:36.352Z,19.00
2018-10-21T04:50:03.607Z,18.67
2018-10-21T04:52:31.507Z,18.07
2018-10-21T04:55:04.647Z,19.00
2018-10-21T04:57:31.671Z,18.50
2018-10-21T04:59:58.766Z,20.70
2018-10-21T05:02:26.212Z,20.87
2018-10-21T05:04:53.248Z,20.17
2018-10-21T05:07:20.327Z,19.97
2018-10-21T05:09:47.381Z,19.00
2018-10-21T05:12:14.440Z,19.33
2018-10-21T05:14:41.528Z,18.60
2018-10-21T05:17:08.856Z,19.20
2018-10-21T05:19:35.931Z,19.00
2018-10-21T05:22:03.013Z,17.60
2018-10-21T05:24:30.063Z,18.30
2018-10-21T05:26:57.088Z,17.30
2018-10-21T05:29:24.111Z,18.23
2018-10-21T05:31:51.183Z,18.07
2018-10-21T05:34:18.336Z,17.27
2018-10-21T05:36:45.387Z,17.83
2018-10-21T05:39:12.669Z,18.60
2018-10-21T05:41:40.152Z,19.53
2018-10-21T05:44:07.243Z,18.43
2018-10-21T05:46:39.731Z,17.60
2018-10-21T05:49:07.009Z,18.87
2018-10-21T05:51:34.123Z,18.73
2018-10-21T05:54:01.169Z,17.20
2018-10-21T05:56:28.315Z,19.47
2018-10-21T05:58:55.363Z,20.20
2018-10-21T06:01:22.740Z,19.40
2018-10-21T06:03:49.776Z,20.30
2018-10-21T06:06:16.815Z,23.43
2018-10-21T06:08:44.092Z,19.97
2018-10-21T06:11:11.160Z,19.70
2018-10-21T06:13:38.280Z,19.60
2018-10-21T06:16:05.675Z,19.50
2018-10-21T06:18:32.748Z,18.93
2018-10-21T06:21:01.856Z,18.03
2018-10-21T06:23:28.995Z,19.60
2018-10-21T06:25:56.020Z,18.30
2018-10-21T06:28:23.098Z,21.03
2018-10-21T06:30:50.155Z,20.33
2018-10-21T06:33:17.338Z,21.70
2018-10-21T06:35:44.304Z,20.60
2018-10-21T06:38:11.364Z,21.30
2018-10-21T06:40:38.399Z,21.37
2018-10-21T06:43:05.527Z,19.80
2018-10-21T06:45:32.616Z,21.80
2018-10-21T06:47:59.627Z,21.27
2018-10-21T06:50:26.660Z,23.43
2018-10-21T06:52:54.024Z,22.03
2018-10-21T06:55:21.051Z,22.30
2018-10-21T06:57:48.131Z,26.77
2018-10-21T07:00:15.372Z,23.07
2018-10-21T07:02:42.424Z,21.07
2018-10-21T07:05:15.312Z,23.00
2018-10-21T07:07:42.353Z,23.33
2018-10-21T07:10:09.552Z,20.63
2018-10-21T07:12:36.574Z,20.80
2018-10-21T07:15:03.967Z,21.70
2018-10-21T07:17:30.955Z,20.63
2018-10-21T07:19:58.304Z,20.80
2018-10-21T07:22:25.327Z,21.30
2018-10-21T07:24:52.355Z,23.30
2018-10-21T07:27:19.763Z,24.40
2018-10-21T07:29:46.864Z,25.53
2018-10-21T07:32:13.883Z,22.40
2018-10-21T07:34:41.203Z,24.73
2018-10-21T07:37:08.239Z,41.80
2018-10-21T07:39:35.263Z,30.13
2018-10-21T07:42:02.300Z,28.70
2018-10-21T07:44:29.336Z,29.07
2018-10-21T07:46:56.364Z,23.67
2018-10-21T07:49:23.700Z,24.23
2018-10-21T07:51:50.727Z,22.10
2018-10-21T07:54:17.760Z,27.43
2018-10-21T07:56:44.795Z,21.43
2018-10-21T07:59:11.847Z,25.87
2018-10-21T08:01:38.857Z,25.77
2018-10-21T08:04:05.938Z,30.23
2018-10-21T08:06:38.912Z,17.17
2018-10-21T08:09:06.944Z,18.30
2018-10-21T08:11:33.968Z,16.93
2018-10-21T08:14:01.011Z,14.83
2018-10-21T08:16:28.043Z,14.33
2018-10-21T08:18:55.059Z,14.00
2018-10-21T08:21:22.176Z,14.20
2018-10-21T08:23:49.438Z,13.97
2018-10-21T08:26:16.486Z,15.97
2018-10-21T08:28:43.499Z,16.03
2018-10-21T08:31:10.708Z,13.13
2018-10-21T08:33:37.772Z,12.40
2018-10-21T08:36:05.180Z,13.47
2018-10-21T08:38:32.375Z,14.67
2018-10-21T08:40:59.390Z,16.40
2018-10-21T08:43:26.617Z,14.10
2018-10-21T08:45:53.756Z,14.10
2018-10-21T08:48:20.784Z,18.13
2018-10-21T08:50:47.800Z,16.03
2018-10-21T08:53:14.859Z,19.67
2018-10-21T08:55:41.993Z,15.07
2018-10-21T08:58:09.052Z,14.43
2018-10-21T09:00:36.390Z,24.30
2018-10-21T09:03:04.020Z,13.77
2018-10-21T09:05:31.059Z,14.00
2018-10-21T09:07:58.123Z,17.80
2018-10-21T09:10:25.319Z,16.50
2018-10-21T09:12:52.347Z,14.43
2018-10-21T09:15:19.857Z,14.17
2018-10-21T09:17:46.940Z,18.90
2018-10-21T09:20:16.366Z,15.30
2018-10-21T09:22:43.810Z,16.30
2018-10-21T09:25:11.928Z,12.30
2018-10-21T09:27:39.869Z,12.33
2018-10-21T09:30:07.644Z,11.93
2018-10-21T09:32:34.664Z,10.90
2018-10-21T09:35:01.772Z,8.30
2018-10-21T09:37:28.864Z,14.83
2018-10-21T09:39:55.960Z,11.40
2018-10-21T09:42:23.549Z,15.60
2018-10-21T09:44:50.671Z,9.43
2018-10-21T09:47:17.774Z,11.20
2018-10-21T09:49:45.865Z,8.50
2018-10-21T09:52:12.947Z,20.13
2018-10-21T09:54:40.019Z,8.50
2018-10-21T09:57:07.073Z,10.50
2018-10-21T09:59:34.151Z,7.63
2018-10-21T10:02:07.207Z,9.50
2018-10-21T10:04:34.259Z,11.87
2018-10-21T10:07:01.333Z,15.20
2018-10-21T10:09:28.443Z,5.87
2018-10-21T10:11:55.724Z,4.10
2018-10-21T10:14:22.800Z,10.03
2018-10-21T10:16:49.844Z,4.27
2018-10-21T10:19:16.958Z,4.57
2018-10-21T10:21:43.971Z,3.60
2018-10-21T10:24:10.998Z,7.10
2018-10-21T10:26:38.081Z,6.47
2018-10-21T10:29:05.152Z,5.10
2018-10-21T10:31:32.224Z,5.00
2018-10-21T10:33:59.344Z,5.60
2018-10-21T10:36:26.418Z,5.60
2018-10-21T10:38:53.460Z,6.40
2018-10-21T10:41:21.028Z,9.40
2018-10-21T10:43:48.596Z,5.50
2018-10-21T10:46:15.772Z,5.70
2018-10-21T10:48:43.185Z,6.37
2018-10-21T10:51:10.343Z,5.80
2018-10-21T10:53:37.497Z,3.90
2018-10-21T10:56:04.710Z,4.17
2018-10-21T10:58:31.784Z,4.63
2018-10-21T11:00:58.860Z,4.80
2018-10-21T11:03:26.193Z,2.60
2018-10-21T11:05:53.334Z,3.17
2018-10-21T11:08:20.516Z,3.40
2018-10-21T11:10:47.584Z,3.00
2018-10-21T11:13:14.732Z,2.90
2018-10-21T11:15:41.749Z,2.50
2018-10-21T11:18:09.198Z,2.90
2018-10-21T11:20:36.276Z,2.53
2018-10-21T11:23:03.339Z,3.20
2018-10-21T11:25:30.410Z,3.00
2018-10-21T11:27:57.551Z,3.20
2018-10-21T11:30:24.564Z,4.00
2018-10-21T11:32:51.891Z,4.47
2018-10-21T11:35:18.940Z,5.60
2018-10-21T11:37:46.079Z,3.47
2018-10-21T11:40:13.161Z,3.83
2018-10-21T11:42:40.552Z,3.50
2018-10-21T11:45:07.672Z,4.37
2018-10-21T11:47:35.113Z,2.63
2018-10-21T11:50:02.260Z,3.83
2018-10-21T11:52:29.338Z,10.17
2018-10-21T11:54:56.772Z,2.87
2018-10-21T11:57:23.865Z,3.20
2018-10-21T11:59:50.955Z,2.97
2018-10-21T12:02:18.395Z,2.33
2018-10-21T12:04:45.888Z,1.90
2018-10-21T12:07:12.971Z,2.47
2018-10-21T12:09:40.068Z,2.50
2018-10-21T12:12:07.100Z,2.70
2018-10-21T12:14:34.221Z,4.60
2018-10-21T12:17:01.617Z,3.80
2018-10-21T12:19:28.732Z,2.50
2018-10-21T12:21:55.844Z,13.30
2018-10-21T12:24:23.272Z,18.67
2018-10-21T12:26:50.368Z,3.43
2018-10-21T12:29:17.457Z,3.10
2018-10-21T12:31:44.540Z,3.57
2018-10-21T12:34:11.631Z,18.60
2018-10-21T12:36:38.703Z,8.13
2018-10-21T12:39:06.508Z,3.30
2018-10-21T12:41:33.610Z,42.17
2018-10-21T12:44:00.660Z,16.53
2018-10-21T12:46:28.033Z,19.03
2018-10-21T12:48:55.107Z,4.80
2018-10-21T12:51:22.220Z,10.20
2018-10-21T12:53:49.679Z,13.27
2018-10-21T12:56:16.840Z,16.23
2018-10-21T12:58:43.874Z,6.70
2018-10-21T13:01:10.987Z,2.53
2018-10-21T13:03:38.028Z,3.20
2018-10-21T13:06:05.045Z,6.07
2018-10-21T13:08:32.336Z,2.60
2018-10-21T13:10:59.400Z,5.00
2018-10-21T13:13:26.473Z,4.20
2018-10-21T13:15:53.491Z,7.57
2018-10-21T13:18:20.544Z,8.30
2018-10-21T13:20:47.571Z,3.63
2018-10-21T13:23:14.977Z,3.93
2018-10-21T13:25:42.040Z,7.13
2018-10-21T13:28:10.066Z,3.63
2018-10-21T13:30:37.111Z,6.83
2018-10-21T13:33:04.240Z,5.53
2018-10-21T13:35:31.259Z,4.07
2018-10-21T13:37:58.351Z,2.43
2018-10-21T13:40:25.613Z,2.60
2018-10-21T13:42:52.697Z,9.13
2018-10-21T13:45:20.089Z,2.63
2018-10-21T13:47:48.196Z,11.30
2018-10-21T13:50:15.254Z,7.50
2018-10-21T13:52:42.379Z,4.97
2018-10-21T13:55:09.551Z,9.40
2018-10-21T13:57:36.745Z,4.80
2018-10-21T14:00:04.360Z,11.53
2018-10-21T14:02:31.432Z,3.70
2018-10-21T14:04:58.468Z,9.17
2018-10-21T14:07:26.078Z,4.13
2018-10-21T14:09:53.361Z,6.20
2018-10-21T14:12:20.407Z,3.40
2018-10-21T14:14:47.752Z,2.87
2018-10-21T14:17:14.788Z,8.63
2018-10-21T14:19:41.822Z,3.70
2018-10-21T14:22:08.914Z,2.63
2018-10-21T14:24:36.044Z,2.90
2018-10-21T14:27:03.204Z,9.83
2018-10-21T14:29:30.283Z,2.70
2018-10-21T14:31:57.416Z,4.03
2018-10-21T14:34:24.464Z,6.17
2018-10-21T14:36:51.849Z,4.10
2018-10-21T14:39:18.970Z,5.50
2018-10-21T14:41:45.983Z,2.87
2018-10-21T14:44:13.315Z,3.43
2018-10-21T14:46:40.343Z,8.07
2018-10-21T14:49:08.328Z,8.57
2018-10-21T14:51:35.509Z,4.70
2018-10-21T14:54:02.545Z,2.97
2018-10-21T14:56:29.632Z,7.57
2018-10-21T14:58:56.934Z,3.57
2018-10-21T15:01:23.966Z,4.90
2018-10-21T15:03:51.321Z,4.10
2018-10-21T15:06:18.769Z,8.73
2018-10-21T15:08:45.776Z,4.60
2018-10-21T15:11:12.852Z,4.00
2018-10-21T15:13:40.219Z,7.17
2018-10-21T15:16:07.425Z,9.93
2018-10-21T15:18:34.606Z,13.97
2018-10-21T15:21:01.692Z,3.77
2018-10-21T15:23:28.858Z,3.33
2018-10-21T15:25:55.899Z,4.17
2018-10-21T15:28:23.084Z,4.43
2018-10-21T15:30:50.117Z,4.20
2018-10-21T15:33:17.171Z,4.27
2018-10-21T15:35:44.524Z,6.53
2018-10-21T15:38:11.687Z,5.57
2018-10-21T15:40:38.717Z,5.40
2018-10-21T15:43:05.769Z,9.80
2018-10-21T15:45:33.109Z,6.03
2018-10-21T15:48:00.088Z,6.33
2018-10-21T15:50:27.232Z,8.67
2018-10-21T15:52:54.228Z,8.60
2018-10-21T15:55:21.421Z,7.17
2018-10-21T15:57:48.524Z,9.70
2018-10-21T16:00:15.628Z,8.27
2018-10-21T16:02:42.777Z,6.20
2018-10-21T16:05:10.533Z,6.90
2018-10-21T16:07:37.751Z,9.77
2018-10-21T16:10:05.553Z,12.10
2018-10-21T16:12:32.600Z,8.40
2018-10-21T16:14:59.646Z,10.70
2018-10-21T16:17:26.773Z,7.87
2018-10-21T16:19:54.441Z,8.50
2018-10-21T16:22:21.412Z,9.43
2018-10-21T16:24:48.697Z,9.23
2018-10-21T16:27:15.837Z,9.60
2018-10-21T16:29:43.373Z,8.70
2018-10-21T16:32:10.455Z,7.80
2018-10-21T16:34:37.850Z,10.47
2018-10-21T16:37:04.922Z,10.87
2018-10-21T16:39:32.113Z,8.73
2018-10-21T16:41:59.581Z,7.50
2018-10-21T16:44:26.709Z,11.13
2018-10-21T16:46:53.800Z,9.67
2018-10-21T16:49:21.268Z,9.37
2018-10-21T16:51:48.457Z,11.53
2018-10-21T16:54:15.693Z,18.10
2018-10-21T16:56:43.645Z,12.30
2018-10-21T16:59:10.716Z,8.63
2018-10-21T17:01:37.795Z,13.37
2018-10-21T17:04:04.944Z,9.50
2018-10-21T17:06:32.181Z,11.60
2018-10-21T17:08:59.274Z,19.70
2018-10-21T17:11:28.441Z,12.60
2018-10-21T17:13:55.546Z,11.07
2018-10-21T17:16:22.632Z,10.17
2018-10-21T17:18:50.247Z,10.60
2018-10-21T17:21:17.313Z,17.27
2018-10-21T17:23:44.437Z,22.23
2018-10-21T17:26:11.772Z,21.30
2018-10-21T17:28:38.870Z,16.30
2018-10-21T17:31:05.918Z,22.10
2018-10-21T17:33:33.064Z,11.50
2018-10-21T17:36:00.267Z,16.27
2018-10-21T17:38:27.304Z,19.00
2018-10-21T17:40:55.103Z,19.20
2018-10-21T17:43:22.196Z,8.90
2018-10-21T17:45:49.303Z,19.07
2018-10-21T17:48:16.636Z,12.60
2018-10-21T17:50:43.726Z,12.73
2018-10-21T17:53:10.772Z,16.40
2018-10-21T17:55:37.872Z,12.40
2018-10-21T17:58:05.289Z,18.73
2018-10-21T18:00:32.396Z,11.20
2018-10-21T18:02:59.915Z,16.60
2018-10-21T18:05:27.183Z,13.20
2018-10-21T18:07:54.238Z,12.23
2018-10-21T18:10:21.739Z,18.90
2018-10-21T18:12:48.836Z,12.77
2018-10-21T18:15:15.871Z,11.23
2018-10-21T18:17:43.460Z,11.43
2018-10-21T18:20:11.568Z,15.10
2018-10-21T18:22:38.592Z,12.80
2018-10-21T18:25:06.175Z,15.07
2018-10-21T18:27:33.199Z,13.60
2018-10-21T18:30:00.411Z,13.80
2018-10-21T18:32:27.488Z,12.83
2018-10-21T18:34:54.588Z,16.90
2018-10-21T18:37:21.639Z,11.87
2018-10-21T18:39:49.019Z,13.13
2018-10-21T18:42:16.180Z,11.70
2018-10-21T18:44:43.218Z,16.50
2018-10-21T18:47:10.697Z,11.73
2018-10-21T18:49:37.868Z,14.37
2018-10-21T18:52:05.013Z,12.70
2018-10-21T18:54:32.007Z,11.13
2018-10-21T18:56:59.116Z,9.70
2018-10-21T18:59:26.223Z,11.27
2018-10-21T19:01:53.600Z,10.40
2018-10-21T19:04:20.768Z,13.40
2018-10-21T19:06:48.080Z,10.80
2018-10-21T19:09:15.178Z,10.43
2018-10-21T19:11:42.212Z,11.20
2018-10-21T19:14:09.679Z,11.80
2018-10-21T19:16:37.232Z,11.20
2018-10-21T19:19:04.574Z,11.20
2018-10-21T19:21:31.597Z,12.27
2018-10-21T19:23:59.146Z,11.43
2018-10-21T19:26:26.244Z,12.27
2018-10-21T19:28:53.291Z,11.03
2018-10-21T19:31:20.480Z,10.77
2018-10-21T19:33:47.547Z,11.03
2018-10-21T19:36:14.600Z,11.03
2018-10-21T19:38:41.804Z,10.83
2018-10-21T19:41:08.904Z,11.97
2018-10-21T19:43:36.010Z,15.77
2018-10-21T19:46:03.466Z,11.33
2018-10-21T19:48:30.651Z,11.63
2018-10-21T19:50:57.798Z,11.73
2018-10-21T19:53:25.380Z,12.20
2018-10-21T19:55:52.494Z,11.47
2018-10-21T19:58:19.757Z,12.87
2018-10-21T20:00:47.118Z,13.23
2018-10-21T20:03:14.308Z,10.50
2018-10-21T20:05:41.413Z,14.23
2018-10-21T20:08:08.949Z,14.07
2018-10-21T20:10:36.185Z,12.27
2018-10-21T20:13:03.337Z,13.30
2018-10-21T20:15:30.370Z,12.60
2018-10-21T20:17:57.483Z,14.10
2018-10-21T20:20:24.561Z,12.07
2018-10-21T20:22:51.640Z,19.50
2018-10-21T20:25:18.886Z,12.67
2018-10-21T20:27:45.989Z,11.80
2018-10-21T20:30:14.000Z,15.70
2018-10-21T20:32:41.524Z,10.53
2018-10-21T20:35:09.663Z,12.40
2018-10-21T20:37:36.740Z,11.83
2018-10-21T20:40:04.520Z,12.23
2018-10-21T20:42:31.707Z,11.23
2018-10-21T20:44:58.857Z,10.07
2018-10-21T20:47:25.988Z,12.00
2018-10-21T20:49:53.176Z,14.57
2018-10-21T20:52:20.625Z,10.33
2018-10-21T20:54:48.469Z,9.97
2018-10-21T20:57:15.648Z,14.53
2018-10-21T20:59:43.992Z,18.47
2018-10-21T21:02:12.404Z,24.10
2018-10-21T21:04:39.841Z,26.23
2018-10-21T21:07:07.788Z,23.50
2018-10-21T21:09:35.078Z,24.07
2018-10-21T21:12:02.408Z,23.47
2018-10-21T21:14:29.436Z,22.00
2018-10-21T21:16:56.514Z,15.53
2018-10-21T21:19:23.636Z,13.77
2018-10-21T21:21:51.199Z,11.93
2018-10-21T21:24:18.587Z,12.53
2018-10-21T21:26:46.216Z,11.63
2018-10-21T21:29:13.572Z,13.83
2018-10-21T21:31:40.623Z,10.37
2018-10-21T21:34:08.250Z,9.50
2018-10-21T21:36:35.660Z,11.90
2018-10-21T21:39:04.639Z,9.60
2018-10-21T21:41:31.735Z,9.60
2018-10-21T21:43:58.820Z,10.47
2018-10-21T21:46:25.884Z,10.50
2018-10-21T21:48:52.938Z,13.27
2018-10-21T21:51:20.410Z,17.40
2018-10-21T21:53:47.432Z,9.37
2018-10-21T21:56:14.493Z,10.33
2018-10-21T21:58:41.856Z,13.10
2018-10-21T22:01:08.959Z,15.33
2018-10-21T22:03:36.032Z,10.10
2018-10-21T22:06:03.384Z,9.90
2018-10-21T22:08:30.507Z,13.00
2018-10-21T22:10:57.595Z,9.87
2018-10-21T22:13:24.934Z,10.50
2018-10-21T22:15:52.097Z,10.93
2018-10-21T22:18:19.278Z,9.20
2018-10-21T22:20:46.591Z,10.50
2018-10-21T22:23:13.643Z,9.40
2018-10-21T22:25:40.751Z,9.17
2018-10-21T22:28:07.932Z,8.57
2018-10-21T22:30:34.996Z,8.73
2018-10-21T22:33:02.045Z,9.90
2018-10-21T22:35:29.499Z,9.87
2018-10-21T22:37:56.676Z,10.40
2018-10-21T22:40:23.717Z,9.77
2018-10-21T22:42:51.291Z,10.00
2018-10-21T22:45:18.323Z,8.63
2018-10-21T22:47:45.366Z,8.93
2018-10-21T22:50:12.764Z,8.77
2018-10-21T22:52:40.595Z,8.13
2018-10-21T22:55:08.085Z,8.43
2018-10-21T22:57:35.188Z,8.93
2018-10-21T23:00:03.812Z,8.50
2018-10-21T23:02:30.844Z,8.17
2018-10-21T23:04:57.936Z,8.10
2018-10-21T23:07:24.988Z,9.10
2018-10-21T23:09:52.172Z,8.13
2018-10-21T23:12:19.618Z,7.60
2018-10-21T23:14:46.748Z,9.07
2018-10-21T23:17:14.023Z,9.30
2018-10-21T23:19:43.581Z,8.50
2018-10-21T23:22:10.876Z,8.40
2018-10-21T23:24:38.797Z,8.10
2018-10-21T23:27:06.442Z,8.07
2018-10-21T23:29:33.584Z,8.90
2018-10-21T23:32:00.821Z,9.60
2018-10-21T23:34:28.221Z,8.00
2018-10-21T23:36:55.816Z,9.87
2018-10-21T23:39:22.864Z,8.33
2018-10-21T23:41:50.256Z,9.10
2018-10-21T23:44:17.461Z,8.80
2018-10-21T23:46:44.524Z,8.90
2018-10-21T23:49:12.050Z,8.90
2018-10-21T23:51:39.103Z,8.40
2018-10-21T23:54:06.409Z,8.23
2018-10-21T23:56:33.860Z,9.03
2018-10-21T23:59:01.165Z,8.47
